Terminal Aerodrome Forecast
Issued by NWS Binghamton, NY

Home | Current Version | Previous Version | Text Only | Print | Product List | Glossary On
Versions: 1 2 3 4 5 6 7 8 9 10 11 12 13 14 15 16 17 18 19
000
FTUS41 KBGM 291700
TAFBGM
TAF
KBGM 291733Z 2918/3018 15010KT P6SM BKN100
     FM291900 15010KT P6SM OVC080 WS020/18045KT
     FM300000 16012KT 1 1/2SM -SN OVC015 WS020/18045KT
      TEMPO 3003/3007 1SM -SN OVC008
     FM300700 16012KT 1 1/2SM -SN OVC010
     FM301200 30010G20KT 4SM -SHSN OVC015=

USA.gov is the U.S. government's official web portal to all federal, state and local government web resources and services.